createdAt,value
2024-01-05T00:07:53.338Z,88
2024-01-05T00:11:44.395Z,88
2024-01-05T00:14:44.713Z,88
2024-01-05T00:17:46.367Z,88
2024-01-05T00:23:44.199Z,88
2024-01-05T00:26:45.097Z,88
2024-01-05T00:29:45.716Z,87
2024-01-05T00:32:44.359Z,87
2024-01-05T00:35:44.319Z,87
2024-01-05T00:38:44.763Z,87
2024-01-05T00:41:45.654Z,87
2024-01-05T00:44:45.216Z,87
2024-01-05T00:47:46.220Z,87
2024-01-05T00:56:14.378Z,87
2024-01-05T01:00:46.433Z,87
2024-01-05T01:02:35.759Z,87
2024-01-05T01:05:33.713Z,87
2024-01-05T01:08:33.404Z,87
2024-01-05T01:11:33.979Z,87
2024-01-05T01:14:34.825Z,88
2024-01-05T01:17:33.690Z,88
2024-01-05T01:20:33.682Z,88
2024-01-05T01:23:34.025Z,88
2024-01-05T01:26:35.008Z,88
2024-01-05T01:29:34.504Z,88
2024-01-05T01:32:46.025Z,88
2024-01-05T01:35:47.078Z,89
2024-01-05T01:38:48.492Z,89
2024-01-05T01:41:47.104Z,89
2024-01-05T01:44:48.281Z,89
2024-01-05T01:47:48.874Z,89
2024-01-05T01:50:48.260Z,90
2024-01-05T01:53:48.666Z,90
2024-01-05T01:56:50.766Z,90
2024-01-05T01:59:31.035Z,90
2024-01-05T02:02:31.430Z,91
2024-01-05T02:05:32.429Z,91
2024-01-05T02:08:31.912Z,91
2024-01-05T02:11:31.848Z,92
2024-01-05T02:14:32.175Z,92
2024-01-05T02:17:33.733Z,92
2024-01-05T02:20:33.199Z,92
2024-01-05T02:23:33.342Z,93
2024-01-05T02:26:34.091Z,93
2024-01-05T02:29:46.420Z,93
2024-01-05T02:32:34.727Z,93
2024-01-05T02:35:45.774Z,94
2024-01-05T02:38:46.071Z,94
2024-01-05T02:41:46.978Z,94
2024-01-05T02:44:48.496Z,94
2024-01-05T02:47:47.304Z,94
2024-01-05T02:50:48.060Z,94
2024-01-05T02:53:49.475Z,95
2024-01-05T02:56:48.106Z,95
2024-01-05T02:59:31.047Z,95
2024-01-05T03:02:31.021Z,95
2024-01-05T03:05:31.818Z,95
2024-01-05T03:08:33.379Z,95
2024-01-05T03:11:31.385Z,95
2024-01-05T03:14:31.924Z,95
2024-01-05T03:17:33.766Z,95
2024-01-05T03:23:32.111Z,95
2024-01-05T03:26:33.039Z,95
2024-01-05T03:29:31.866Z,95
2024-01-05T03:32:32.125Z,95
2024-01-05T03:38:32.474Z,95
2024-01-05T03:41:32.775Z,95
2024-01-05T03:44:33.383Z,95
2024-01-05T03:47:32.746Z,95
2024-01-05T03:53:35.768Z,95
2024-01-05T03:56:33.909Z,96
2024-01-05T03:59:30.104Z,96
2024-01-05T04:02:30.968Z,96
2024-01-05T04:05:29.731Z,96
2024-01-05T04:08:29.748Z,96
2024-01-05T04:11:30.481Z,96
2024-01-05T04:14:30.134Z,96
2024-01-05T04:17:30.365Z,96
2024-01-05T04:23:33.034Z,96
2024-01-05T04:26:30.752Z,97
2024-01-05T04:29:31.216Z,97
2024-01-05T04:32:33.078Z,97
2024-01-05T04:38:31.555Z,97
2024-01-05T04:41:32.405Z,97
2024-01-05T04:44:31.639Z,97
2024-01-05T04:47:33.450Z,97
2024-01-05T04:53:32.265Z,97
2024-01-05T04:56:32.763Z,98
2024-01-05T04:59:30.638Z,98
2024-01-05T05:02:28.769Z,98
2024-01-05T05:05:29.387Z,98
2024-01-05T05:08:31.510Z,98
2024-01-05T05:11:29.276Z,98
2024-01-05T05:14:29.740Z,98
2024-01-05T05:17:30.731Z,98
2024-01-05T05:20:29.472Z,98
2024-01-05T05:23:29.850Z,98
2024-01-05T05:26:30.571Z,98
2024-01-05T05:29:30.270Z,98
2024-01-05T05:32:30.410Z,98
2024-01-05T05:35:31.028Z,98
2024-01-05T05:38:32.824Z,98
2024-01-05T05:41:31.478Z,98
2024-01-05T05:44:33.391Z,99
2024-01-05T05:47:31.451Z,99
2024-01-05T05:51:13.754Z,99
2024-01-05T05:53:31.693Z,99
2024-01-05T05:56:32.995Z,99
2024-01-05T05:59:28.004Z,99
2024-01-05T06:02:28.417Z,99
2024-01-05T06:05:30.409Z,99
2024-01-05T06:08:28.252Z,99
2024-01-05T06:11:28.769Z,99
2024-01-05T06:14:29.737Z,99
2024-01-05T06:17:28.487Z,99
2024-01-05T06:20:28.737Z,99
2024-01-05T06:23:32.122Z,99
2024-01-05T06:26:29.237Z,99
2024-01-05T06:29:29.436Z,99
2024-01-05T06:32:30.068Z,99
2024-01-05T06:35:29.156Z,99
2024-01-05T06:38:30.628Z,99
2024-01-05T06:41:32.452Z,99
2024-01-05T06:44:30.286Z,99
2024-01-05T06:47:30.694Z,99
2024-01-05T06:50:33.922Z,99
2024-01-05T06:53:30.439Z,99
2024-01-05T06:56:30.578Z,99
2024-01-05T06:59:26.432Z,99
2024-01-05T07:02:26.069Z,99
2024-01-05T07:05:26.307Z,99
2024-01-05T07:08:26.858Z,99
2024-01-05T07:11:28.656Z,99
2024-01-05T07:14:26.703Z,99
2024-01-05T07:17:27.287Z,100
2024-01-05T07:20:29.206Z,100
2024-01-05T07:23:27.204Z,100
2024-01-05T07:26:27.604Z,100
2024-01-05T07:29:28.551Z,100
2024-01-05T07:32:27.920Z,100
2024-01-05T07:35:31.519Z,100
2024-01-05T07:38:28.927Z,100
2024-01-05T07:41:29.174Z,100
2024-01-05T07:44:29.737Z,100
2024-01-05T07:47:31.676Z,100
2024-01-05T07:50:29.881Z,100
2024-01-05T07:53:30.385Z,100
2024-01-05T07:56:32.230Z,100
2024-01-05T07:59:25.237Z,100
2024-01-05T08:02:25.729Z,100
2024-01-05T08:05:26.732Z,100
2024-01-05T08:08:25.415Z,100
2024-01-05T08:11:25.710Z,100
2024-01-05T08:14:26.545Z,100
2024-01-05T08:17:26.242Z,100
2024-01-05T08:20:26.355Z,100
2024-01-05T08:23:26.961Z,100
2024-01-05T08:26:28.730Z,100
2024-01-05T08:29:27.366Z,100
2024-01-05T08:32:28.171Z,100
2024-01-05T08:35:27.643Z,100
2024-01-05T08:38:27.798Z,100
2024-01-05T08:41:49.034Z,100
2024-01-05T08:44:29.989Z,100
2024-01-05T08:47:28.150Z,100
2024-01-05T08:50:28.853Z,100
2024-01-05T08:53:30.393Z,100
2024-01-05T08:56:28.426Z,100
2024-01-05T08:59:23.904Z,100
2024-01-05T09:02:25.430Z,100
2024-01-05T09:05:23.800Z,100
2024-01-05T09:08:23.843Z,100
2024-01-05T09:11:24.630Z,100
2024-01-05T09:14:24.205Z,100
2024-01-05T09:17:24.326Z,100
2024-01-05T09:20:24.971Z,100
2024-01-05T09:23:26.777Z,100
2024-01-05T09:26:24.831Z,100
2024-01-05T09:29:25.944Z,100
2024-01-05T09:32:26.136Z,100
2024-01-05T09:35:25.773Z,100
2024-01-05T09:38:26.384Z,100
2024-01-05T09:41:27.256Z,100
2024-01-05T09:44:25.257Z,100
2024-01-05T09:47:25.692Z,100
2024-01-05T09:50:27.908Z,100
2024-01-05T09:53:25.668Z,100
2024-01-05T09:56:26.163Z,100
2024-01-05T09:59:24.035Z,100
2024-01-05T10:05:23.223Z,100
2024-01-05T10:08:23.868Z,100
2024-01-05T10:11:23.536Z,100
2024-01-05T10:14:23.946Z,100
2024-01-05T10:20:25.324Z,100
2024-01-05T10:23:23.315Z,100
2024-01-05T10:26:23.939Z,100
2024-01-05T10:29:23.922Z,100
2024-01-05T10:35:25.078Z,100
2024-01-05T10:38:25.818Z,100
2024-01-05T10:41:23.898Z,100
2024-01-05T10:44:24.305Z,100
2024-01-05T10:47:26.074Z,100
2024-01-05T10:50:24.094Z,100
2024-01-05T10:53:24.373Z,100
2024-01-05T10:56:25.280Z,100
2024-01-05T10:59:23.159Z,100
2024-01-05T11:02:23.792Z,100
2024-01-05T11:05:24.619Z,100
2024-01-05T11:08:24.060Z,100
2024-01-05T11:11:24.428Z,100
2024-01-05T11:14:25.015Z,100
2024-01-05T11:17:25.711Z,100
2024-01-05T11:20:23.909Z,100
2024-01-05T11:23:24.193Z,100
2024-01-05T11:26:26.101Z,100
2024-01-05T11:29:24.638Z,100
2024-01-05T11:32:25.261Z,100
2024-01-05T11:35:27.017Z,100
2024-01-05T11:38:25.162Z,100
2024-01-05T11:41:25.665Z,100
2024-01-05T11:44:27.567Z,100
2024-01-05T11:47:25.499Z,100
2024-01-05T11:50:26.080Z,99
2024-01-05T11:53:26.779Z,100
2024-01-05T11:56:25.485Z,100
2024-01-05T11:59:23.809Z,100
2024-01-05T12:02:24.440Z,100
2024-01-05T12:05:24.200Z,100
2024-01-05T12:08:24.407Z,100
2024-01-05T12:11:25.456Z,100
2024-01-05T12:14:25.930Z,100
2024-01-05T12:17:24.095Z,100
2024-01-05T12:20:25.066Z,100
2024-01-05T12:23:26.482Z,100
2024-01-05T12:26:24.587Z,100
2024-01-05T12:29:25.379Z,100
2024-01-05T12:32:27.160Z,100
2024-01-05T12:35:25.307Z,100
2024-01-05T12:38:25.666Z,100
2024-01-05T12:41:30.662Z,100
2024-01-05T12:44:25.500Z,100
2024-01-05T12:47:25.988Z,100
2024-01-05T12:50:26.920Z,100
2024-01-05T12:53:25.801Z,100
2024-01-05T12:56:26.090Z,100
2024-01-05T12:59:24.731Z,100
2024-01-05T13:02:24.336Z,100
2024-01-05T13:05:24.608Z,99
2024-01-05T13:08:25.283Z,99
2024-01-05T13:11:27.151Z,99
2024-01-05T13:14:25.116Z,100
2024-01-05T13:17:25.567Z,100
2024-01-05T13:20:27.393Z,100
2024-01-05T13:23:25.318Z,100
2024-01-05T13:26:25.816Z,100
2024-01-05T13:29:26.920Z,100
2024-01-05T13:32:25.326Z,100
2024-01-05T13:35:25.450Z,100
2024-01-05T13:38:27.259Z,100
2024-01-05T13:41:25.520Z,100
2024-01-05T13:44:25.615Z,100
2024-01-05T13:47:26.605Z,100
2024-01-05T13:50:25.386Z,100
2024-01-05T13:53:25.880Z,100
2024-01-05T13:56:26.539Z,100
2024-01-05T13:59:23.222Z,100
2024-01-05T14:02:23.323Z,100
2024-01-05T14:05:24.022Z,100
2024-01-05T14:08:25.846Z,100
2024-01-05T14:11:23.878Z,100
2024-01-05T14:14:24.365Z,100
2024-01-05T14:17:26.244Z,100
2024-01-05T14:20:24.409Z,100
2024-01-05T14:23:24.605Z,100
2024-01-05T14:29:26.291Z,100
2024-01-05T14:32:25.347Z,100
2024-01-05T14:35:27.350Z,100
2024-01-05T14:38:25.309Z,100
2024-01-05T14:41:28.898Z,100
2024-01-05T14:44:26.748Z,100
2024-01-05T14:47:25.428Z,100
2024-01-05T14:50:25.551Z,100
2024-01-05T14:53:27.604Z,100
2024-01-05T14:56:25.924Z,100
2024-01-05T14:59:24.080Z,100
2024-01-05T15:02:24.744Z,100
2024-01-05T15:05:26.666Z,100
2024-01-05T15:08:24.461Z,100
2024-01-05T15:11:25.001Z,100
2024-01-05T15:14:26.751Z,100
2024-01-05T15:17:24.812Z,100
2024-01-05T15:20:25.152Z,100
2024-01-05T15:23:26.111Z,100
2024-01-05T15:26:24.927Z,100
2024-01-05T15:29:25.820Z,100
2024-01-05T15:32:27.881Z,100
2024-01-05T15:35:26.009Z,100
2024-01-05T15:38:26.188Z,100
2024-01-05T15:41:26.969Z,100
2024-01-05T15:44:28.636Z,100
2024-01-05T15:47:27.309Z,100
2024-01-05T15:50:29.131Z,100
2024-01-05T15:53:27.109Z,100
2024-01-05T15:56:27.387Z,100
2024-01-05T16:00:06.997Z,100
2024-01-05T16:02:24.367Z,100
2024-01-05T16:05:25.157Z,100
2024-01-05T16:08:25.010Z,100
2024-01-05T16:11:25.837Z,100
2024-01-05T16:14:25.490Z,100
2024-01-05T16:17:25.727Z,100
2024-01-05T16:20:26.549Z,100
2024-01-05T16:23:26.078Z,100
2024-01-05T16:26:26.796Z,100
2024-01-05T16:29:27.721Z,100
2024-01-05T16:32:26.457Z,100
2024-01-05T16:35:26.732Z,100
2024-01-05T16:38:27.521Z,100
2024-01-05T16:41:27.202Z,100
2024-01-05T16:44:27.433Z,100
2024-01-05T16:47:28.248Z,100
2024-01-05T16:50:28.985Z,100
2024-01-05T16:53:26.923Z,100
2024-01-05T16:56:27.389Z,100
2024-01-05T16:59:24.207Z,100
2024-01-05T17:02:22.632Z,100
2024-01-05T17:05:22.850Z,100
2024-01-05T17:08:23.445Z,100
2024-01-05T17:11:22.219Z,100
2024-01-05T17:14:22.443Z,100
2024-01-05T17:17:23.227Z,100
2024-01-05T17:20:37.046Z,100
2024-01-05T17:23:23.068Z,100
2024-01-05T17:26:24.359Z,100
2024-01-05T17:29:23.033Z,100
2024-01-05T17:32:23.365Z,100
2024-01-05T17:35:24.172Z,100
2024-01-05T17:38:23.778Z,100
2024-01-05T17:41:23.965Z,100
2024-01-05T17:44:24.466Z,100
2024-01-05T17:47:26.336Z,100
2024-01-05T17:50:24.278Z,100
2024-01-05T17:53:24.578Z,100
2024-01-05T17:56:26.406Z,100
2024-01-05T17:59:22.513Z,100
2024-01-05T18:02:22.930Z,100
2024-01-05T18:05:23.770Z,100
2024-01-05T18:08:22.425Z,100
2024-01-05T18:11:22.759Z,100
2024-01-05T18:14:23.656Z,100
2024-01-05T18:17:23.452Z,100
2024-01-05T18:20:23.620Z,100
2024-01-05T18:23:24.221Z,100
2024-01-05T18:26:23.455Z,100
2024-01-05T18:29:36.485Z,100
2024-01-05T18:32:24.300Z,100
2024-01-05T18:35:24.181Z,100
2024-01-05T18:38:24.113Z,100
2024-01-05T18:41:27.389Z,100
2024-01-05T18:44:26.584Z,100
2024-01-05T18:47:24.711Z,100
2024-01-05T18:50:25.349Z,101
2024-01-05T18:53:27.028Z,101
2024-01-05T18:56:24.954Z,101
2024-01-05T18:59:23.337Z,101
2024-01-05T19:05:23.049Z,100
2024-01-05T19:08:23.281Z,100
2024-01-05T19:11:24.041Z,100
2024-01-05T19:14:23.755Z,100
2024-01-05T19:17:23.925Z,101
2024-01-05T19:20:24.565Z,101
2024-01-05T19:23:26.196Z,101
2024-01-05T19:26:24.938Z,100
2024-01-05T19:29:25.769Z,100
2024-01-05T19:32:25.263Z,100
2024-01-05T19:35:25.662Z,100
2024-01-05T19:38:26.209Z,100
2024-01-05T19:44:26.039Z,100
2024-01-05T19:47:26.626Z,100
2024-01-05T19:50:28.405Z,100
2024-01-05T19:53:26.383Z,100
2024-01-05T19:56:26.835Z,100
2024-01-05T19:59:23.732Z,100
2024-01-05T20:02:22.513Z,100
2024-01-05T20:05:22.696Z,101
2024-01-05T20:08:23.296Z,101
2024-01-05T20:11:22.949Z,101
2024-01-05T20:14:23.149Z,101
2024-01-05T20:17:23.650Z,101
2024-01-05T20:20:25.862Z,101
2024-01-05T20:23:23.517Z,101
2024-01-05T20:26:24.770Z,101
2024-01-05T20:29:24.493Z,101
2024-01-05T20:32:24.716Z,101
2024-01-05T20:35:25.366Z,101
2024-01-05T20:38:27.146Z,101
2024-01-05T20:44:29.859Z,101
2024-01-05T20:47:27.900Z,101
2024-01-05T20:50:25.779Z,101
2024-01-05T20:53:28.052Z,101
2024-01-05T20:59:22.777Z,101
2024-01-05T21:02:23.007Z,101
2024-01-05T21:05:23.843Z,101
2024-01-05T21:08:23.488Z,101
2024-01-05T21:14:24.387Z,101
2024-01-05T21:17:26.214Z,101
2024-01-05T21:20:24.305Z,101
2024-01-05T21:23:24.854Z,101
2024-01-05T21:26:25.064Z,101
2024-01-05T21:29:25.215Z,101
2024-01-05T21:32:27.764Z,101
2024-01-05T21:35:26.712Z,101
2024-01-05T21:38:24.829Z,101
2024-01-05T21:44:27.202Z,101
2024-01-05T21:47:25.151Z,101
2024-01-05T21:50:25.488Z,101
2024-01-05T21:53:26.427Z,101
2024-01-05T21:59:22.426Z,101
2024-01-05T22:02:23.094Z,101
2024-01-05T22:05:23.026Z,101
2024-01-05T22:08:23.115Z,101
2024-01-05T22:11:23.730Z,101
2024-01-05T22:14:24.565Z,101
2024-01-05T22:17:22.616Z,101
2024-01-05T22:20:23.228Z,101
2024-01-05T22:23:25.028Z,101
2024-01-05T22:26:23.692Z,101
2024-01-05T22:29:24.535Z,101
2024-01-05T22:32:25.250Z,101
2024-01-05T22:35:23.398Z,101
2024-01-05T22:38:25.453Z,101
2024-01-05T22:41:25.420Z,101
2024-01-05T22:44:23.336Z,101
2024-01-05T22:47:23.710Z,101
2024-01-05T22:50:24.992Z,101
2024-01-05T22:53:23.263Z,101
2024-01-05T23:02:22.967Z,101
2024-01-05T23:05:23.152Z,101
2024-01-05T23:08:24.167Z,101
2024-01-05T23:11:24.678Z,101
2024-01-05T23:14:22.680Z,101
2024-01-05T23:17:23.248Z,101
2024-01-05T23:20:25.541Z,101
2024-01-05T23:23:23.047Z,101
2024-01-05T23:26:24.169Z,101
2024-01-05T23:29:25.898Z,101
2024-01-05T23:32:23.899Z,100
2024-01-05T23:35:24.437Z,101
2024-01-05T23:38:26.302Z,101
2024-01-05T23:41:24.224Z,101
2024-01-05T23:44:24.655Z,101
2024-01-05T23:47:25.677Z,101
2024-01-05T23:50:24.329Z,100
2024-01-05T23:53:24.555Z,101
2024-01-05T23:56:25.275Z,101
2024-01-05T23:59:22.980Z,100
